createdAt,value
2023-11-01T00:02:23.563Z,0.50
2023-11-01T00:04:50.276Z,0.50
2023-11-01T00:07:16.907Z,0.60
2023-11-01T00:09:43.630Z,0.50
2023-11-01T00:12:10.312Z,0.70
2023-11-01T00:14:37.047Z,0.85
2023-11-01T00:17:03.742Z,1.48
2023-11-01T00:19:30.316Z,0.65
2023-11-01T00:21:56.942Z,0.82
2023-11-01T00:24:23.591Z,0.70
2023-11-01T00:26:50.288Z,0.95
2023-11-01T00:29:16.936Z,1.60
2023-11-01T00:31:43.622Z,1.27
2023-11-01T00:34:10.338Z,1.20
2023-11-01T00:36:37.041Z,1.67
2023-11-01T00:39:04.216Z,1.67
2023-11-01T00:41:30.909Z,2.20
2023-11-01T00:43:57.568Z,1.40
2023-11-01T00:46:24.443Z,1.15
2023-11-01T00:48:51.105Z,1.30
2023-11-01T00:51:17.707Z,1.83
2023-11-01T00:53:44.418Z,1.58
2023-11-01T00:56:11.173Z,2.03
2023-11-01T00:58:39.975Z,2.45
2023-11-01T01:01:07.110Z,2.83
2023-11-01T01:03:35.350Z,2.63
2023-11-01T01:06:03.901Z,2.70
2023-11-01T01:08:32.572Z,3.05
2023-11-01T01:10:59.327Z,3.75
2023-11-01T01:13:25.947Z,2.72
2023-11-01T01:15:52.643Z,3.00
2023-11-01T01:18:21.600Z,3.08
2023-11-01T01:20:49.179Z,3.35
2023-11-01T01:23:16.022Z,3.95
2023-11-01T01:25:42.691Z,4.18
2023-11-01T01:28:09.723Z,3.85
2023-11-01T01:30:36.497Z,3.78
2023-11-01T01:33:03.160Z,4.93
2023-11-01T01:35:29.915Z,4.35
2023-11-01T01:37:56.553Z,4.10
2023-11-01T01:40:23.254Z,4.75
2023-11-01T01:42:49.965Z,3.67
2023-11-01T01:45:16.923Z,5.07
2023-11-01T01:47:43.832Z,4.75
2023-11-01T01:50:10.864Z,4.80
2023-11-01T01:52:37.709Z,3.67
2023-11-01T01:55:07.594Z,6.45
2023-11-01T01:57:35.536Z,4.60
2023-11-01T02:00:03.875Z,4.20
2023-11-01T02:02:30.610Z,4.30
2023-11-01T02:04:57.264Z,4.88
2023-11-01T02:07:23.870Z,4.75
2023-11-01T02:09:50.546Z,4.75
2023-11-01T02:12:18.404Z,4.80
2023-11-01T02:14:45.321Z,5.80
2023-11-01T02:17:14.179Z,5.35
2023-11-01T02:19:40.799Z,5.15
2023-11-01T02:22:07.484Z,4.90
2023-11-01T02:24:34.324Z,5.75
2023-11-01T02:27:02.326Z,6.03
2023-11-01T02:29:28.981Z,5.30
2023-11-01T02:31:55.669Z,6.00
2023-11-01T02:34:22.859Z,5.10
2023-11-01T02:36:50.550Z,6.10
2023-11-01T02:39:19.025Z,6.68
2023-11-01T02:41:45.822Z,5.75
2023-11-01T02:44:12.508Z,6.53
2023-11-01T02:46:39.170Z,5.78
2023-11-01T02:49:05.821Z,5.55
2023-11-01T02:51:32.539Z,5.53
2023-11-01T02:53:59.477Z,5.65
2023-11-01T02:56:26.297Z,5.70
2023-11-01T02:58:53.456Z,4.65
2023-11-01T03:01:22.686Z,4.93
2023-11-01T03:03:50.691Z,4.40
2023-11-01T03:06:17.742Z,4.57
2023-11-01T03:08:46.984Z,4.65
2023-11-01T03:11:13.961Z,4.65
2023-11-01T03:13:40.657Z,4.57
2023-11-01T03:16:07.701Z,4.00
2023-11-01T03:18:35.016Z,3.85
2023-11-01T03:21:01.622Z,4.15
2023-11-01T03:23:28.234Z,3.20
2023-11-01T03:25:54.828Z,3.42
2023-11-01T03:28:21.468Z,3.42
2023-11-01T03:30:48.104Z,3.33
2023-11-01T03:33:14.748Z,3.15
2023-11-01T03:35:41.519Z,2.95
2023-11-01T03:38:08.140Z,2.60
2023-11-01T03:40:34.797Z,2.53
2023-11-01T03:43:01.449Z,2.63
2023-11-01T03:45:28.032Z,3.00
2023-11-01T03:47:54.768Z,2.42
2023-11-01T03:50:22.163Z,2.33
2023-11-01T03:52:50.737Z,2.17
2023-11-01T03:55:17.347Z,2.35
2023-11-01T03:57:43.938Z,2.47
2023-11-01T04:00:11.515Z,2.60
2023-11-01T04:02:38.559Z,2.80
2023-11-01T04:05:05.597Z,2.38
2023-11-01T04:07:32.259Z,2.35
2023-11-01T04:09:58.912Z,2.03
2023-11-01T04:12:25.513Z,2.55
2023-11-01T04:14:52.646Z,1.95
2023-11-01T04:17:20.081Z,2.03
2023-11-01T04:19:46.769Z,3.05
2023-11-01T04:22:13.396Z,1.90
2023-11-01T04:24:39.992Z,2.10
2023-11-01T04:27:06.757Z,2.45
2023-11-01T04:29:33.374Z,1.90
2023-11-01T04:32:01.023Z,1.90
2023-11-01T04:34:27.679Z,2.03
2023-11-01T04:36:54.285Z,2.35
2023-11-01T04:39:21.672Z,1.70
2023-11-01T04:41:48.381Z,2.38
2023-11-01T04:44:18.575Z,1.90
2023-11-01T04:46:45.668Z,2.20
2023-11-01T04:49:12.362Z,2.20
2023-11-01T04:51:38.932Z,1.60
2023-11-01T04:54:07.747Z,2.10
2023-11-01T04:56:34.819Z,1.95
2023-11-01T04:59:01.762Z,1.80
2023-11-01T05:01:34.069Z,2.63
2023-11-01T05:04:00.879Z,2.58
2023-11-01T05:06:28.002Z,2.38
2023-11-01T05:08:55.045Z,2.65
2023-11-01T05:11:23.736Z,1.60
2023-11-01T05:13:50.708Z,2.40
2023-11-01T05:16:17.685Z,2.80
2023-11-01T05:18:44.316Z,2.92
2023-11-01T05:21:10.924Z,1.70
2023-11-01T05:23:37.575Z,2.58
2023-11-01T05:26:04.578Z,2.30
2023-11-01T05:28:31.195Z,3.10
2023-11-01T05:30:57.815Z,2.38
2023-11-01T05:33:24.590Z,1.80
2023-11-01T05:35:51.260Z,1.80
2023-11-01T05:38:17.899Z,1.70
2023-11-01T05:40:44.620Z,1.50
2023-11-01T05:43:11.876Z,1.70
2023-11-01T05:45:38.465Z,1.80
2023-11-01T05:48:10.006Z,2.10
2023-11-01T05:50:37.718Z,2.70
2023-11-01T05:53:10.125Z,1.77
2023-11-01T05:55:48.784Z,1.90
2023-11-01T05:58:25.015Z,1.80
2023-11-01T06:00:51.669Z,2.22
2023-11-01T06:03:18.419Z,1.73
2023-11-01T06:05:45.191Z,2.03
2023-11-01T06:08:11.820Z,1.88
2023-11-01T06:10:38.939Z,1.77
2023-11-01T06:13:09.624Z,1.85
2023-11-01T06:15:39.596Z,1.77
2023-11-01T06:18:08.541Z,2.38
2023-11-01T06:20:36.613Z,2.28
2023-11-01T06:23:09.313Z,2.22
2023-11-01T06:25:39.806Z,3.10
2023-11-01T06:28:06.445Z,2.55
2023-11-01T06:30:33.033Z,2.63
2023-11-01T06:32:59.798Z,2.25
2023-11-01T06:35:26.514Z,2.70
2023-11-01T06:37:53.212Z,2.40
2023-11-01T06:40:19.871Z,2.70
2023-11-01T06:42:46.480Z,2.67
2023-11-01T06:45:15.864Z,2.90
2023-11-01T06:47:42.577Z,3.20
2023-11-01T06:50:09.768Z,3.00
2023-11-01T06:52:36.490Z,3.03
2023-11-01T06:55:03.325Z,4.10
2023-11-01T06:57:29.996Z,3.95
2023-11-01T06:59:56.876Z,4.47
2023-11-01T07:02:23.575Z,4.38
2023-11-01T07:04:50.144Z,3.85
2023-11-01T07:07:18.581Z,4.88
2023-11-01T07:09:46.732Z,3.88
2023-11-01T07:12:13.328Z,3.75
2023-11-01T07:14:39.990Z,3.67
2023-11-01T07:17:06.682Z,3.97
2023-11-01T07:19:33.322Z,3.63
2023-11-01T07:22:00.025Z,4.05
2023-11-01T07:24:26.671Z,3.67
2023-11-01T07:26:53.420Z,3.40
2023-11-01T07:29:20.087Z,3.53
2023-11-01T07:31:46.736Z,3.17
2023-11-01T07:34:13.339Z,3.38
2023-11-01T07:36:39.984Z,3.33
2023-11-01T07:39:06.634Z,2.85
2023-11-01T07:41:33.455Z,5.65
2023-11-01T07:44:00.152Z,3.00
2023-11-01T07:46:26.721Z,3.30
2023-11-01T07:48:53.365Z,2.88
2023-11-01T07:51:19.896Z,3.28
2023-11-01T07:53:46.553Z,4.15
2023-11-01T07:56:13.191Z,2.85
2023-11-01T07:58:39.915Z,2.78
2023-11-01T08:01:06.731Z,4.68
2023-11-01T08:03:35.848Z,3.63
2023-11-01T08:06:02.778Z,3.17
2023-11-01T08:08:29.490Z,3.10
2023-11-01T08:10:56.083Z,3.00
2023-11-01T08:13:23.404Z,2.63
2023-11-01T08:15:50.483Z,2.70
2023-11-01T08:18:17.252Z,3.17
2023-11-01T08:20:44.167Z,2.17
2023-11-01T08:23:10.904Z,2.80
2023-11-01T08:25:38.530Z,3.47
2023-11-01T08:28:05.573Z,2.40
2023-11-01T08:30:32.177Z,3.20
2023-11-01T08:33:01.562Z,1.58
2023-11-01T08:35:28.304Z,2.22
2023-11-01T08:37:55.905Z,1.88
2023-11-01T08:40:22.559Z,3.15
2023-11-01T08:42:49.157Z,2.33
2023-11-01T08:45:16.007Z,2.50
2023-11-01T08:47:45.320Z,3.50
2023-11-01T08:50:13.846Z,2.17
2023-11-01T08:52:44.100Z,1.58
2023-11-01T08:55:14.713Z,2.53
2023-11-01T08:57:42.312Z,1.42
2023-11-01T09:00:10.222Z,2.20
2023-11-01T09:02:36.912Z,2.35
2023-11-01T09:05:03.754Z,2.03
2023-11-01T09:07:30.323Z,1.92
2023-11-01T09:10:00.546Z,2.75
2023-11-01T09:12:29.214Z,1.92
2023-11-01T09:14:56.007Z,2.05
2023-11-01T09:17:22.798Z,1.55
2023-11-01T09:19:49.460Z,1.45
2023-11-01T09:22:16.639Z,1.35
2023-11-01T09:24:46.414Z,2.05
2023-11-01T09:27:13.036Z,1.60
2023-11-01T09:29:39.680Z,2.58
2023-11-01T09:32:06.806Z,2.38
2023-11-01T09:34:34.173Z,1.40
2023-11-01T09:37:00.952Z,1.83
2023-11-01T09:39:27.736Z,2.33
2023-11-01T09:42:31.822Z,2.38
2023-11-01T09:47:34.206Z,2.58
2023-11-01T09:50:01.635Z,2.50
2023-11-01T09:52:30.442Z,1.33
2023-11-01T09:55:01.391Z,2.30
2023-11-01T09:57:30.306Z,1.90
2023-11-01T09:59:57.701Z,2.42
2023-11-01T10:02:24.691Z,2.35
2023-11-01T10:04:52.379Z,1.02
2023-11-01T10:07:19.215Z,1.77
2023-11-01T10:09:48.555Z,2.40
2023-11-01T10:12:21.025Z,2.00
2023-11-01T10:14:50.529Z,1.42
2023-11-01T10:17:17.771Z,1.25
2023-11-01T10:19:47.503Z,1.27
2023-11-01T10:22:14.911Z,1.50
2023-11-01T10:24:45.174Z,1.52
2023-11-01T10:27:12.021Z,1.15
2023-11-01T10:29:48.286Z,0.90
2023-11-01T10:32:18.000Z,1.95
2023-11-01T10:34:44.896Z,1.65
2023-11-01T10:37:11.623Z,1.33
2023-11-01T10:39:41.316Z,1.15
2023-11-01T10:42:09.769Z,1.50
2023-11-01T10:44:36.873Z,0.90
2023-11-01T10:47:11.447Z,1.38
2023-11-01T10:49:41.955Z,0.95
2023-11-01T10:52:13.397Z,1.38
2023-11-01T10:54:41.231Z,1.10
2023-11-01T10:57:08.333Z,0.98
2023-11-01T10:59:54.891Z,0.82
2023-11-01T11:02:25.845Z,1.52
2023-11-01T11:05:06.600Z,0.93
2023-11-01T11:07:55.153Z,0.80
2023-11-01T11:10:30.050Z,1.00
2023-11-01T11:13:09.194Z,1.65
2023-11-01T11:15:52.394Z,1.25
2023-11-01T11:18:23.456Z,1.00
2023-11-01T11:20:53.269Z,1.02
2023-11-01T11:23:23.397Z,1.45
2023-11-01T11:25:53.324Z,0.80
2023-11-01T11:28:24.771Z,1.13
2023-11-01T11:31:09.199Z,1.00
2023-11-01T11:34:00.193Z,0.73
2023-11-01T11:39:21.903Z,0.83
2023-11-01T11:41:52.944Z,1.13
2023-11-01T11:44:24.027Z,1.98
2023-11-01T11:47:00.774Z,0.70
2023-11-01T11:49:30.076Z,1.42
2023-11-01T11:52:10.808Z,1.95
2023-11-01T11:54:37.705Z,1.30
2023-11-01T11:57:09.896Z,0.98
2023-11-01T11:59:37.193Z,1.20
2023-11-01T12:02:11.263Z,0.70
2023-11-01T12:04:42.282Z,0.77
2023-11-01T12:07:09.223Z,0.68
2023-11-01T12:09:39.126Z,1.80
2023-11-01T12:12:15.643Z,2.08
2023-11-01T12:14:43.301Z,0.50
2023-11-01T12:17:09.989Z,0.70
2023-11-01T12:19:47.356Z,0.80
2023-11-01T12:22:15.645Z,1.17
2023-11-01T12:24:48.120Z,2.35
2023-11-01T12:27:18.485Z,0.80
2023-11-01T12:30:04.326Z,0.90
2023-11-01T12:40:31.746Z,0.98
2023-11-01T12:43:09.990Z,1.48
2023-11-01T12:45:44.674Z,0.88
2023-11-01T12:48:13.648Z,0.73
2023-11-01T12:50:43.259Z,0.90
2023-11-01T12:53:11.424Z,2.35
2023-11-01T12:58:31.433Z,1.05
2023-11-01T13:00:58.246Z,0.80
2023-11-01T13:03:25.072Z,1.95
2023-11-01T13:05:52.008Z,1.08
2023-11-01T13:08:19.656Z,0.95
2023-11-01T13:10:46.868Z,0.70
2023-11-01T13:13:14.381Z,1.00
2023-11-01T13:15:45.563Z,1.45
2023-11-01T13:18:14.792Z,1.00
2023-11-01T13:20:42.338Z,0.70
2023-11-01T13:23:19.803Z,1.00
2023-11-01T13:25:54.097Z,0.95
2023-11-01T13:28:20.752Z,1.13
2023-11-01T13:30:47.474Z,0.75
2023-11-01T13:33:14.169Z,0.57
2023-11-01T13:35:40.941Z,0.90
2023-11-01T13:38:08.686Z,0.68
2023-11-01T13:40:36.266Z,1.20
2023-11-01T13:43:03.275Z,0.90
2023-11-01T13:45:29.996Z,1.10
2023-11-01T13:47:57.529Z,0.73
2023-11-01T13:50:24.179Z,0.60
2023-11-01T13:52:51.001Z,1.10
2023-11-01T13:55:17.668Z,1.38
2023-11-01T13:57:44.326Z,0.68
2023-11-01T14:00:11.416Z,0.80
2023-11-01T14:02:38.257Z,1.30
2023-11-01T14:05:05.153Z,0.95
2023-11-01T14:07:31.819Z,0.70
2023-11-01T14:09:58.453Z,0.70
2023-11-01T14:12:25.066Z,0.60
2023-11-01T14:14:51.816Z,1.23
2023-11-01T14:17:18.780Z,0.73
2023-11-01T14:19:45.476Z,0.35
2023-11-01T14:22:12.150Z,0.70
2023-11-01T14:24:38.838Z,1.20
2023-11-01T14:27:05.954Z,0.60
2023-11-01T14:29:33.155Z,0.55
2023-11-01T14:32:00.468Z,1.75
2023-11-01T14:34:29.068Z,0.60
2023-11-01T14:36:56.186Z,1.55
2023-11-01T14:39:23.014Z,0.50
2023-11-01T14:41:51.296Z,0.68
2023-11-01T14:44:18.026Z,0.40
2023-11-01T14:46:44.698Z,1.90
2023-11-01T14:49:11.752Z,0.65
2023-11-01T14:51:42.311Z,0.70
2023-11-01T14:54:09.044Z,1.95
2023-11-01T14:56:38.365Z,0.70
2023-11-01T14:59:05.786Z,1.20
2023-11-01T15:01:34.462Z,0.73
2023-11-01T15:04:01.821Z,1.17
2023-11-01T15:06:28.444Z,1.40
2023-11-01T15:08:55.067Z,0.60
2023-11-01T15:11:21.799Z,0.50
2023-11-01T15:13:48.407Z,0.73
2023-11-01T15:16:15.004Z,0.60
2023-11-01T15:18:41.658Z,0.80
2023-11-01T15:21:09.228Z,0.40
2023-11-01T15:23:39.011Z,0.80
2023-11-01T15:26:05.880Z,0.88
2023-11-01T15:28:35.647Z,1.48
2023-11-01T15:31:03.045Z,0.70
2023-11-01T15:33:30.809Z,0.95
2023-11-01T15:35:57.697Z,0.60
2023-11-01T15:38:24.354Z,0.55
2023-11-01T15:40:50.947Z,0.43
2023-11-01T15:43:17.577Z,0.65
2023-11-01T15:45:45.202Z,1.17
2023-11-01T15:48:11.983Z,0.75
2023-11-01T15:50:43.027Z,0.73
2023-11-01T15:53:10.084Z,0.93
2023-11-01T15:55:36.693Z,1.45
2023-11-01T15:58:03.310Z,0.57
2023-11-01T16:00:30.716Z,0.82
2023-11-01T16:02:57.527Z,1.08
2023-11-01T16:05:24.381Z,1.13
2023-11-01T16:07:51.039Z,0.98
2023-11-01T16:10:17.788Z,0.85
2023-11-01T16:12:44.404Z,1.58
2023-11-01T16:15:11.870Z,0.50
2023-11-01T16:17:38.651Z,0.75
2023-11-01T16:20:05.792Z,0.50
2023-11-01T16:22:32.528Z,0.60
2023-11-01T16:24:59.154Z,0.30
2023-11-01T16:27:25.971Z,0.73
2023-11-01T16:29:52.749Z,0.50
2023-11-01T16:32:19.459Z,1.27
2023-11-01T16:34:49.581Z,1.50
2023-11-01T16:40:14.179Z,1.10
2023-11-01T16:42:44.285Z,0.90
2023-11-01T16:45:42.889Z,0.90
2023-11-01T16:48:31.708Z,1.27
2023-11-01T16:50:58.821Z,1.20
2023-11-01T16:56:20.710Z,1.17
2023-11-01T16:59:13.679Z,0.90
2023-11-01T17:01:40.876Z,1.35
2023-11-01T17:04:10.308Z,1.08
2023-11-01T17:06:38.256Z,1.52
2023-11-01T17:09:05.383Z,3.40
2023-11-01T17:11:32.257Z,2.70
2023-11-01T17:13:59.107Z,1.85
2023-11-01T17:16:29.746Z,2.42
2023-11-01T17:18:59.005Z,2.30
2023-11-01T17:21:26.930Z,1.45
2023-11-01T17:23:54.774Z,2.78
2023-11-01T17:26:45.651Z,1.55
2023-11-01T17:29:34.853Z,0.98
2023-11-01T17:35:08.669Z,0.65
2023-11-01T17:37:46.878Z,0.73
2023-11-01T17:40:18.198Z,0.60
2023-11-01T17:53:08.465Z,3.20
2023-11-01T17:59:30.927Z,2.92
2023-11-01T18:02:52.657Z,2.85
2023-11-01T18:17:28.195Z,1.98
2023-11-01T18:20:08.679Z,1.98
2023-11-01T18:23:06.499Z,1.80
2023-11-01T18:29:36.001Z,1.25
2023-11-01T18:32:38.438Z,1.45
2023-11-01T18:38:17.419Z,1.33
2023-11-01T18:44:10.163Z,1.65
2023-11-01T18:47:02.061Z,1.13
2023-11-01T18:53:43.031Z,0.40
2023-11-01T18:56:47.314Z,0.63
2023-11-01T18:59:39.636Z,1.25
2023-11-01T19:02:36.622Z,2.78
2023-11-01T19:05:35.948Z,2.25
2023-11-01T19:08:41.586Z,1.25
2023-11-01T19:14:29.588Z,1.37
2023-11-01T19:23:29.931Z,2.03
2023-11-01T19:28:58.044Z,1.00
2023-11-01T19:34:44.145Z,4.13
2023-11-01T19:44:02.713Z,1.98
2023-11-01T19:49:04.535Z,1.00
2023-11-01T19:55:29.997Z,1.00
2023-11-01T20:02:17.937Z,1.30
2023-11-01T20:04:56.227Z,0.80
2023-11-01T20:07:26.681Z,1.30
2023-11-01T20:10:08.469Z,0.63
2023-11-01T20:19:03.048Z,0.90
2023-11-01T20:21:45.261Z,1.27
2023-11-01T20:24:34.502Z,0.60
2023-11-01T20:27:28.665Z,0.65
2023-11-01T20:29:56.992Z,0.85
2023-11-01T20:35:13.691Z,1.13
2023-11-01T20:37:51.915Z,1.00
2023-11-01T20:40:33.543Z,1.08
2023-11-01T20:43:01.381Z,1.10
2023-11-01T20:45:30.435Z,1.65
2023-11-01T20:48:07.754Z,0.90
2023-11-01T20:50:42.222Z,0.80
2023-11-01T20:53:09.034Z,0.90
2023-11-01T20:55:36.921Z,0.77
2023-11-01T20:58:07.528Z,1.00
2023-11-01T21:00:52.274Z,0.80
2023-11-01T21:03:22.339Z,0.70
2023-11-01T21:05:50.384Z,0.80
2023-11-01T21:11:18.778Z,1.08
2023-11-01T21:14:05.392Z,0.75
2023-11-01T21:17:02.871Z,1.38
2023-11-01T21:19:29.909Z,0.90
2023-11-01T21:21:58.302Z,1.13
2023-11-01T21:24:44.874Z,0.85
2023-11-01T21:27:13.977Z,0.68
2023-11-01T21:29:42.394Z,1.08
2023-11-01T21:32:13.868Z,1.20
2023-11-01T21:34:56.642Z,0.70
2023-11-01T21:37:51.687Z,1.00
2023-11-01T21:40:26.387Z,0.82
2023-11-01T21:43:54.152Z,1.42
2023-11-01T21:49:45.841Z,0.85
2023-11-01T21:52:51.655Z,0.60
2023-11-01T21:55:55.393Z,0.85
2023-11-01T21:58:35.326Z,1.23
2023-11-01T22:01:46.305Z,0.70
2023-11-01T22:04:38.769Z,0.88
2023-11-01T22:07:46.294Z,0.93
2023-11-01T22:10:24.169Z,0.73
2023-11-01T22:13:02.109Z,0.90
2023-11-01T22:15:38.458Z,0.90
2023-11-01T22:18:10.410Z,0.70
2023-11-01T22:20:51.536Z,1.95
2023-11-01T22:23:39.213Z,1.05
2023-11-01T22:26:23.974Z,0.70
2023-11-01T22:28:58.321Z,0.55
2023-11-01T22:32:10.194Z,0.55
2023-11-01T22:34:50.799Z,0.73
2023-11-01T22:40:08.427Z,0.60
2023-11-01T22:42:37.924Z,0.47
2023-11-01T22:45:05.240Z,0.70
2023-11-01T22:47:33.822Z,1.02
2023-11-01T22:50:01.276Z,0.88
2023-11-01T22:52:28.299Z,0.50
2023-11-01T22:55:01.232Z,0.82
2023-11-01T22:57:32.605Z,1.50
2023-11-01T23:00:00.088Z,0.77
2023-11-01T23:02:37.446Z,0.80
2023-11-01T23:05:08.640Z,0.95
2023-11-01T23:08:10.381Z,1.70
2023-11-01T23:13:19.678Z,1.40
2023-11-01T23:15:58.052Z,0.77
2023-11-01T23:18:32.586Z,1.40
2023-11-01T23:21:06.788Z,0.52
2023-11-01T23:23:44.278Z,0.60
2023-11-01T23:26:21.813Z,0.90
2023-11-01T23:29:10.223Z,0.80
2023-11-01T23:31:53.249Z,1.63
2023-11-01T23:34:46.187Z,0.73
2023-11-01T23:37:58.177Z,0.90
2023-11-01T23:40:48.729Z,0.90
2023-11-01T23:43:15.855Z,0.98
2023-11-01T23:48:25.915Z,0.90
2023-11-01T23:51:08.534Z,0.60
2023-11-01T23:53:36.663Z,0.60
2023-11-01T23:56:08.183Z,0.60
